sensor_id;sensor_type;location;lat;lon;timestamp;P1;durP1;ratioP1;P2;durP2;ratioP2
8151;SDS011;4117;53.622;9.958;2023-04-15T00:00:18;0.37;;;0.37;;
8151;SDS011;4117;53.622;9.958;2023-04-15T00:02:45;1.23;;;0.70;;
8151;SDS011;4117;53.622;9.958;2023-04-15T00:05:12;0.40;;;0.40;;
8151;SDS011;4117;53.622;9.958;2023-04-15T00:07:39;0.40;;;0.40;;
8151;SDS011;4117;53.622;9.958;2023-04-15T00:10:06;0.40;;;0.40;;
8151;SDS011;4117;53.622;9.958;2023-04-15T00:12:34;0.77;;;0.60;;
8151;SDS011;4117;53.622;9.958;2023-04-15T00:15:02;0.73;;;0.50;;
8151;SDS011;4117;53.622;9.958;2023-04-15T00:17:30;0.40;;;0.40;;
8151;SDS011;4117;53.622;9.958;2023-04-15T00:19:58;0.80;;;0.60;;
8151;SDS011;4117;53.622;9.958;2023-04-15T00:22:25;0.57;;;0.43;;
8151;SDS011;4117;53.622;9.958;2023-04-15T00:24:52;0.77;;;0.40;;
8151;SDS011;4117;53.622;9.958;2023-04-15T00:27:20;0.90;;;0.60;;
8151;SDS011;4117;53.622;9.958;2023-04-15T00:29:47;0.43;;;0.43;;
8151;SDS011;4117;53.622;9.958;2023-04-15T00:32:15;1.07;;;0.60;;
8151;SDS011;4117;53.622;9.958;2023-04-15T00:34:42;0.70;;;0.70;;
8151;SDS011;4117;53.622;9.958;2023-04-15T00:37:09;0.47;;;0.47;;
8151;SDS011;4117;53.622;9.958;2023-04-15T00:39:36;0.33;;;0.33;;
8151;SDS011;4117;53.622;9.958;2023-04-15T00:42:04;0.30;;;0.30;;
8151;SDS011;4117;53.622;9.958;2023-04-15T00:44:31;0.67;;;0.67;;
8151;SDS011;4117;53.622;9.958;2023-04-15T00:46:59;0.43;;;0.40;;
8151;SDS011;4117;53.622;9.958;2023-04-15T00:49:27;0.40;;;0.37;;
8151;SDS011;4117;53.622;9.958;2023-04-15T00:51:56;1.30;;;0.70;;
8151;SDS011;4117;53.622;9.958;2023-04-15T00:54:23;1.00;;;0.53;;
8151;SDS011;4117;53.622;9.958;2023-04-15T00:56:50;0.70;;;0.70;;
8151;SDS011;4117;53.622;9.958;2023-04-15T00:59:18;0.70;;;0.70;;
8151;SDS011;4117;53.622;9.958;2023-04-15T01:01:46;0.50;;;0.50;;
8151;SDS011;4117;53.622;9.958;2023-04-15T01:04:14;0.53;;;0.50;;
8151;SDS011;4117;53.622;9.958;2023-04-15T01:06:43;0.47;;;0.37;;
8151;SDS011;4117;53.622;9.958;2023-04-15T01:09:10;0.43;;;0.40;;
8151;SDS011;4117;53.622;9.958;2023-04-15T01:11:37;1.10;;;0.70;;
8151;SDS011;4117;53.622;9.958;2023-04-15T01:14:04;1.13;;;0.80;;
8151;SDS011;4117;53.622;9.958;2023-04-15T01:16:32;0.83;;;0.53;;
8151;SDS011;4117;53.622;9.958;2023-04-15T01:19:00;1.53;;;0.70;;
8151;SDS011;4117;53.622;9.958;2023-04-15T01:21:27;0.70;;;0.70;;
8151;SDS011;4117;53.622;9.958;2023-04-15T01:23:55;0.67;;;0.57;;
8151;SDS011;4117;53.622;9.958;2023-04-15T01:26:25;0.87;;;0.50;;
8151;SDS011;4117;53.622;9.958;2023-04-15T01:28:52;1.33;;;0.70;;
8151;SDS011;4117;53.622;9.958;2023-04-15T01:31:20;0.83;;;0.50;;
8151;SDS011;4117;53.622;9.958;2023-04-15T01:33:47;0.37;;;0.37;;
8151;SDS011;4117;53.622;9.958;2023-04-15T01:36:14;0.47;;;0.47;;
8151;SDS011;4117;53.622;9.958;2023-04-15T01:38:41;3.57;;;0.87;;
8151;SDS011;4117;53.622;9.958;2023-04-15T01:41:08;0.30;;;0.23;;
8151;SDS011;4117;53.622;9.958;2023-04-15T01:43:36;0.93;;;0.70;;
8151;SDS011;4117;53.622;9.958;2023-04-15T01:46:03;0.50;;;0.43;;
8151;SDS011;4117;53.622;9.958;2023-04-15T01:48:31;0.30;;;0.30;;
8151;SDS011;4117;53.622;9.958;2023-04-15T01:50:58;0.67;;;0.67;;
8151;SDS011;4117;53.622;9.958;2023-04-15T01:53:25;0.40;;;0.40;;
8151;SDS011;4117;53.622;9.958;2023-04-15T01:55:52;0.73;;;0.50;;
8151;SDS011;4117;53.622;9.958;2023-04-15T01:58:19;0.73;;;0.73;;
8151;SDS011;4117;53.622;9.958;2023-04-15T02:00:48;0.80;;;0.53;;
8151;SDS011;4117;53.622;9.958;2023-04-15T02:03:15;0.47;;;0.40;;
8151;SDS011;4117;53.622;9.958;2023-04-15T02:05:43;0.80;;;0.63;;
8151;SDS011;4117;53.622;9.958;2023-04-15T02:08:09;0.80;;;0.70;;
8151;SDS011;4117;53.622;9.958;2023-04-15T02:10:37;0.63;;;0.53;;
8151;SDS011;4117;53.622;9.958;2023-04-15T02:13:04;0.87;;;0.87;;
8151;SDS011;4117;53.622;9.958;2023-04-15T02:15:31;0.43;;;0.43;;
8151;SDS011;4117;53.622;9.958;2023-04-15T02:17:59;0.97;;;0.87;;
8151;SDS011;4117;53.622;9.958;2023-04-15T02:20:26;0.50;;;0.33;;
8151;SDS011;4117;53.622;9.958;2023-04-15T02:22:54;0.50;;;0.50;;
8151;SDS011;4117;53.622;9.958;2023-04-15T02:25:22;1.00;;;0.80;;
8151;SDS011;4117;53.622;9.958;2023-04-15T02:27:48;1.13;;;0.50;;
8151;SDS011;4117;53.622;9.958;2023-04-15T02:30:15;0.73;;;0.50;;
8151;SDS011;4117;53.622;9.958;2023-04-15T02:32:43;0.47;;;0.47;;
8151;SDS011;4117;53.622;9.958;2023-04-15T02:35:11;0.90;;;0.80;;
8151;SDS011;4117;53.622;9.958;2023-04-15T02:37:38;0.50;;;0.40;;
8151;SDS011;4117;53.622;9.958;2023-04-15T02:40:08;1.23;;;0.70;;
8151;SDS011;4117;53.622;9.958;2023-04-15T02:42:36;2.73;;;0.87;;
8151;SDS011;4117;53.622;9.958;2023-04-15T02:45:04;0.27;;;0.27;;
8151;SDS011;4117;53.622;9.958;2023-04-15T02:47:32;0.87;;;0.70;;
8151;SDS011;4117;53.622;9.958;2023-04-15T02:50:00;1.20;;;0.43;;
8151;SDS011;4117;53.622;9.958;2023-04-15T02:52:29;1.20;;;0.43;;
8151;SDS011;4117;53.622;9.958;2023-04-15T02:54:56;0.77;;;0.53;;
8151;SDS011;4117;53.622;9.958;2023-04-15T02:57:25;0.30;;;0.30;;
8151;SDS011;4117;53.622;9.958;2023-04-15T02:59:53;3.13;;;0.57;;
8151;SDS011;4117;53.622;9.958;2023-04-15T03:02:20;3.40;;;0.83;;
8151;SDS011;4117;53.622;9.958;2023-04-15T03:04:47;1.00;;;0.70;;
8151;SDS011;4117;53.622;9.958;2023-04-15T03:07:14;1.07;;;0.40;;
8151;SDS011;4117;53.622;9.958;2023-04-15T03:09:42;0.97;;;0.50;;
8151;SDS011;4117;53.622;9.958;2023-04-15T03:12:09;1.03;;;0.50;;
8151;SDS011;4117;53.622;9.958;2023-04-15T03:14:36;1.43;;;0.97;;
8151;SDS011;4117;53.622;9.958;2023-04-15T03:17:03;1.43;;;0.57;;
8151;SDS011;4117;53.622;9.958;2023-04-15T03:19:30;0.73;;;0.50;;
8151;SDS011;4117;53.622;9.958;2023-04-15T03:21:57;1.77;;;0.80;;
8151;SDS011;4117;53.622;9.958;2023-04-15T03:24:24;0.97;;;0.70;;
8151;SDS011;4117;53.622;9.958;2023-04-15T03:26:55;1.73;;;0.90;;
8151;SDS011;4117;53.622;9.958;2023-04-15T03:29:22;1.03;;;0.63;;
8151;SDS011;4117;53.622;9.958;2023-04-15T03:31:49;1.03;;;0.87;;
8151;SDS011;4117;53.622;9.958;2023-04-15T03:34:16;1.03;;;0.63;;
8151;SDS011;4117;53.622;9.958;2023-04-15T03:36:43;0.60;;;0.60;;
8151;SDS011;4117;53.622;9.958;2023-04-15T03:39:10;1.63;;;0.90;;
8151;SDS011;4117;53.622;9.958;2023-04-15T03:41:37;0.60;;;0.60;;
8151;SDS011;4117;53.622;9.958;2023-04-15T03:44:05;0.67;;;0.47;;
8151;SDS011;4117;53.622;9.958;2023-04-15T03:46:32;1.23;;;0.80;;
8151;SDS011;4117;53.622;9.958;2023-04-15T03:48:59;1.53;;;0.63;;
8151;SDS011;4117;53.622;9.958;2023-04-15T03:51:27;2.20;;;1.03;;
8151;SDS011;4117;53.622;9.958;2023-04-15T03:53:54;2.00;;;1.00;;
8151;SDS011;4117;53.622;9.958;2023-04-15T03:56:21;1.97;;;0.60;;
8151;SDS011;4117;53.622;9.958;2023-04-15T03:58:48;1.30;;;1.07;;
8151;SDS011;4117;53.622;9.958;2023-04-15T04:01:16;1.10;;;0.83;;
8151;SDS011;4117;53.622;9.958;2023-04-15T04:03:43;1.83;;;1.00;;
8151;SDS011;4117;53.622;9.958;2023-04-15T04:06:10;0.80;;;0.80;;
8151;SDS011;4117;53.622;9.958;2023-04-15T04:08:37;1.00;;;0.90;;
8151;SDS011;4117;53.622;9.958;2023-04-15T04:11:05;5.23;;;1.27;;
8151;SDS011;4117;53.622;9.958;2023-04-15T04:13:32;1.17;;;0.97;;
8151;SDS011;4117;53.622;9.958;2023-04-15T04:15:58;1.00;;;0.90;;
8151;SDS011;4117;53.622;9.958;2023-04-15T04:18:27;1.20;;;1.00;;
8151;SDS011;4117;53.622;9.958;2023-04-15T04:20:54;2.10;;;0.77;;
8151;SDS011;4117;53.622;9.958;2023-04-15T04:23:21;1.77;;;1.10;;
8151;SDS011;4117;53.622;9.958;2023-04-15T04:25:48;0.90;;;0.60;;
8151;SDS011;4117;53.622;9.958;2023-04-15T04:28:15;1.63;;;1.30;;
8151;SDS011;4117;53.622;9.958;2023-04-15T04:30:41;0.70;;;0.70;;
8151;SDS011;4117;53.622;9.958;2023-04-15T04:33:09;2.87;;;1.20;;
8151;SDS011;4117;53.622;9.958;2023-04-15T04:35:37;2.27;;;0.83;;
8151;SDS011;4117;53.622;9.958;2023-04-15T04:38:04;1.53;;;1.00;;
8151;SDS011;4117;53.622;9.958;2023-04-15T04:40:31;1.73;;;0.87;;
8151;SDS011;4117;53.622;9.958;2023-04-15T04:42:58;1.77;;;1.40;;
8151;SDS011;4117;53.622;9.958;2023-04-15T04:45:25;3.03;;;0.90;;
8151;SDS011;4117;53.622;9.958;2023-04-15T04:47:52;1.27;;;0.80;;
8151;SDS011;4117;53.622;9.958;2023-04-15T04:50:19;4.00;;;1.30;;
8151;SDS011;4117;53.622;9.958;2023-04-15T04:52:47;2.00;;;1.30;;
8151;SDS011;4117;53.622;9.958;2023-04-15T04:55:14;2.87;;;1.23;;
8151;SDS011;4117;53.622;9.958;2023-04-15T04:57:42;2.07;;;1.10;;
8151;SDS011;4117;53.622;9.958;2023-04-15T05:00:09;2.57;;;1.20;;
8151;SDS011;4117;53.622;9.958;2023-04-15T05:02:37;2.17;;;1.33;;
8151;SDS011;4117;53.622;9.958;2023-04-15T05:05:06;3.87;;;1.47;;
8151;SDS011;4117;53.622;9.958;2023-04-15T05:07:33;2.67;;;0.93;;
8151;SDS011;4117;53.622;9.958;2023-04-15T05:10:02;3.60;;;1.03;;
8151;SDS011;4117;53.622;9.958;2023-04-15T05:12:30;0.80;;;0.77;;
8151;SDS011;4117;53.622;9.958;2023-04-15T05:14:57;1.37;;;1.03;;
8151;SDS011;4117;53.622;9.958;2023-04-15T05:17:24;5.47;;;1.57;;
8151;SDS011;4117;53.622;9.958;2023-04-15T05:19:51;4.27;;;1.57;;
8151;SDS011;4117;53.622;9.958;2023-04-15T05:22:18;2.10;;;0.80;;
8151;SDS011;4117;53.622;9.958;2023-04-15T05:24:45;1.60;;;1.07;;
8151;SDS011;4117;53.622;9.958;2023-04-15T05:27:13;3.80;;;1.07;;
8151;SDS011;4117;53.622;9.958;2023-04-15T05:29:41;3.37;;;1.17;;
8151;SDS011;4117;53.622;9.958;2023-04-15T05:32:08;2.83;;;1.00;;
8151;SDS011;4117;53.622;9.958;2023-04-15T05:34:34;3.73;;;1.10;;
8151;SDS011;4117;53.622;9.958;2023-04-15T05:37:01;1.93;;;1.03;;
8151;SDS011;4117;53.622;9.958;2023-04-15T05:39:28;1.87;;;1.23;;
8151;SDS011;4117;53.622;9.958;2023-04-15T05:41:56;1.03;;;0.90;;
8151;SDS011;4117;53.622;9.958;2023-04-15T05:44:25;3.10;;;1.10;;
8151;SDS011;4117;53.622;9.958;2023-04-15T05:46:52;1.20;;;0.97;;
8151;SDS011;4117;53.622;9.958;2023-04-15T05:49:19;2.30;;;1.00;;
8151;SDS011;4117;53.622;9.958;2023-04-15T05:51:46;1.47;;;1.23;;
8151;SDS011;4117;53.622;9.958;2023-04-15T05:54:13;2.37;;;1.20;;
8151;SDS011;4117;53.622;9.958;2023-04-15T05:56:40;2.13;;;1.47;;
8151;SDS011;4117;53.622;9.958;2023-04-15T05:59:07;1.40;;;1.00;;
8151;SDS011;4117;53.622;9.958;2023-04-15T06:01:35;1.10;;;0.97;;
8151;SDS011;4117;53.622;9.958;2023-04-15T06:04:02;1.30;;;0.90;;
8151;SDS011;4117;53.622;9.958;2023-04-15T06:06:29;1.43;;;1.13;;
8151;SDS011;4117;53.622;9.958;2023-04-15T06:08:56;4.67;;;1.63;;
8151;SDS011;4117;53.622;9.958;2023-04-15T06:11:23;2.70;;;1.50;;
8151;SDS011;4117;53.622;9.958;2023-04-15T06:13:51;1.77;;;1.10;;
8151;SDS011;4117;53.622;9.958;2023-04-15T06:16:18;2.13;;;1.27;;
8151;SDS011;4117;53.622;9.958;2023-04-15T06:18:46;1.20;;;1.03;;
8151;SDS011;4117;53.622;9.958;2023-04-15T06:21:13;1.97;;;1.43;;
8151;SDS011;4117;53.622;9.958;2023-04-15T06:23:40;2.33;;;1.33;;
8151;SDS011;4117;53.622;9.958;2023-04-15T06:26:08;2.43;;;1.67;;
8151;SDS011;4117;53.622;9.958;2023-04-15T06:28:35;2.80;;;1.10;;
8151;SDS011;4117;53.622;9.958;2023-04-15T06:31:02;1.93;;;1.33;;
8151;SDS011;4117;53.622;9.958;2023-04-15T06:33:29;3.00;;;1.30;;
8151;SDS011;4117;53.622;9.958;2023-04-15T06:35:58;3.73;;;1.60;;
8151;SDS011;4117;53.622;9.958;2023-04-15T06:38:25;4.13;;;1.40;;
8151;SDS011;4117;53.622;9.958;2023-04-15T06:40:52;6.37;;;1.20;;
8151;SDS011;4117;53.622;9.958;2023-04-15T06:43:19;2.73;;;1.30;;
8151;SDS011;4117;53.622;9.958;2023-04-15T06:45:46;3.50;;;1.30;;
8151;SDS011;4117;53.622;9.958;2023-04-15T06:48:13;2.10;;;1.20;;
8151;SDS011;4117;53.622;9.958;2023-04-15T06:50:40;3.83;;;1.80;;
8151;SDS011;4117;53.622;9.958;2023-04-15T06:53:09;5.20;;;2.00;;
8151;SDS011;4117;53.622;9.958;2023-04-15T06:55:36;4.23;;;1.80;;
8151;SDS011;4117;53.622;9.958;2023-04-15T06:58:04;3.57;;;1.30;;
8151;SDS011;4117;53.622;9.958;2023-04-15T07:00:31;3.30;;;1.70;;
8151;SDS011;4117;53.622;9.958;2023-04-15T07:02:58;1.97;;;1.33;;
8151;SDS011;4117;53.622;9.958;2023-04-15T07:05:27;1.40;;;1.20;;
8151;SDS011;4117;53.622;9.958;2023-04-15T07:07:55;1.93;;;1.23;;
8151;SDS011;4117;53.622;9.958;2023-04-15T07:10:23;3.30;;;1.57;;
8151;SDS011;4117;53.622;9.958;2023-04-15T07:12:50;3.07;;;1.70;;
8151;SDS011;4117;53.622;9.958;2023-04-15T07:15:17;2.00;;;1.47;;
8151;SDS011;4117;53.622;9.958;2023-04-15T07:17:44;2.90;;;1.90;;
8151;SDS011;4117;53.622;9.958;2023-04-15T07:20:11;2.47;;;1.73;;
8151;SDS011;4117;53.622;9.958;2023-04-15T07:22:38;4.67;;;1.83;;
8151;SDS011;4117;53.622;9.958;2023-04-15T07:25:06;2.47;;;1.63;;
8151;SDS011;4117;53.622;9.958;2023-04-15T07:27:35;2.73;;;1.87;;
8151;SDS011;4117;53.622;9.958;2023-04-15T07:30:02;3.87;;;1.60;;
8151;SDS011;4117;53.622;9.958;2023-04-15T07:32:29;2.57;;;1.77;;
8151;SDS011;4117;53.622;9.958;2023-04-15T07:34:56;3.27;;;1.70;;
8151;SDS011;4117;53.622;9.958;2023-04-15T07:37:23;11.60;;;1.63;;
8151;SDS011;4117;53.622;9.958;2023-04-15T07:39:50;3.33;;;1.63;;
8151;SDS011;4117;53.622;9.958;2023-04-15T07:42:17;2.90;;;1.87;;
8151;SDS011;4117;53.622;9.958;2023-04-15T07:44:45;4.20;;;1.60;;
8151;SDS011;4117;53.622;9.958;2023-04-15T07:47:12;2.90;;;1.53;;
8151;SDS011;4117;53.622;9.958;2023-04-15T07:49:40;6.03;;;1.87;;
8151;SDS011;4117;53.622;9.958;2023-04-15T07:52:08;5.03;;;1.77;;
8151;SDS011;4117;53.622;9.958;2023-04-15T07:54:35;4.00;;;2.10;;
8151;SDS011;4117;53.622;9.958;2023-04-15T07:57:02;2.20;;;1.53;;
8151;SDS011;4117;53.622;9.958;2023-04-15T07:59:29;4.07;;;1.63;;
8151;SDS011;4117;53.622;9.958;2023-04-15T08:01:58;3.03;;;1.50;;
8151;SDS011;4117;53.622;9.958;2023-04-15T08:04:25;1.90;;;1.30;;
8151;SDS011;4117;53.622;9.958;2023-04-15T08:06:52;4.23;;;1.50;;
8151;SDS011;4117;53.622;9.958;2023-04-15T08:09:20;3.43;;;1.80;;
8151;SDS011;4117;53.622;9.958;2023-04-15T08:11:47;6.87;;;2.23;;
8151;SDS011;4117;53.622;9.958;2023-04-15T08:14:14;4.63;;;1.80;;
8151;SDS011;4117;53.622;9.958;2023-04-15T08:16:42;2.63;;;1.43;;
8151;SDS011;4117;53.622;9.958;2023-04-15T08:19:10;2.70;;;1.77;;
8151;SDS011;4117;53.622;9.958;2023-04-15T08:21:37;3.63;;;1.73;;
8151;SDS011;4117;53.622;9.958;2023-04-15T08:24:05;3.83;;;1.97;;
8151;SDS011;4117;53.622;9.958;2023-04-15T08:26:32;2.00;;;1.30;;
8151;SDS011;4117;53.622;9.958;2023-04-15T08:28:59;2.80;;;2.10;;
8151;SDS011;4117;53.622;9.958;2023-04-15T08:31:27;4.70;;;1.97;;
8151;SDS011;4117;53.622;9.958;2023-04-15T08:33:55;3.80;;;1.77;;
8151;SDS011;4117;53.622;9.958;2023-04-15T08:36:24;5.13;;;2.33;;
8151;SDS011;4117;53.622;9.958;2023-04-15T08:38:52;4.80;;;1.60;;
8151;SDS011;4117;53.622;9.958;2023-04-15T08:41:20;4.07;;;1.73;;
8151;SDS011;4117;53.622;9.958;2023-04-15T08:43:51;3.27;;;2.03;;
8151;SDS011;4117;53.622;9.958;2023-04-15T08:46:19;3.77;;;1.70;;
8151;SDS011;4117;53.622;9.958;2023-04-15T08:48:47;3.60;;;2.00;;
8151;SDS011;4117;53.622;9.958;2023-04-15T08:51:15;5.50;;;1.87;;
8151;SDS011;4117;53.622;9.958;2023-04-15T08:53:44;3.23;;;2.13;;
8151;SDS011;4117;53.622;9.958;2023-04-15T08:56:13;4.47;;;1.97;;
8151;SDS011;4117;53.622;9.958;2023-04-15T08:58:40;4.23;;;2.10;;
8151;SDS011;4117;53.622;9.958;2023-04-15T09:01:09;6.67;;;2.53;;
8151;SDS011;4117;53.622;9.958;2023-04-15T09:03:37;5.57;;;1.83;;
8151;SDS011;4117;53.622;9.958;2023-04-15T09:06:05;4.43;;;1.93;;
8151;SDS011;4117;53.622;9.958;2023-04-15T09:08:33;4.13;;;2.00;;
8151;SDS011;4117;53.622;9.958;2023-04-15T09:11:02;5.37;;;2.37;;
8151;SDS011;4117;53.622;9.958;2023-04-15T09:13:29;3.20;;;2.03;;
8151;SDS011;4117;53.622;9.958;2023-04-15T09:15:56;4.73;;;2.10;;
8151;SDS011;4117;53.622;9.958;2023-04-15T09:18:27;6.40;;;2.37;;
8151;SDS011;4117;53.622;9.958;2023-04-15T09:20:54;4.27;;;2.23;;
8151;SDS011;4117;53.622;9.958;2023-04-15T09:23:22;3.13;;;2.33;;
8151;SDS011;4117;53.622;9.958;2023-04-15T09:25:49;4.33;;;2.40;;
8151;SDS011;4117;53.622;9.958;2023-04-15T09:28:23;5.40;;;2.70;;
8151;SDS011;4117;53.622;9.958;2023-04-15T09:30:54;5.50;;;2.57;;
8151;SDS011;4117;53.622;9.958;2023-04-15T09:33:22;6.20;;;2.40;;
8151;SDS011;4117;53.622;9.958;2023-04-15T09:35:56;4.40;;;2.57;;
8151;SDS011;4117;53.622;9.958;2023-04-15T09:38:25;3.07;;;2.07;;
8151;SDS011;4117;53.622;9.958;2023-04-15T09:40:52;6.53;;;2.57;;
8151;SDS011;4117;53.622;9.958;2023-04-15T09:43:20;5.90;;;2.10;;
8151;SDS011;4117;53.622;9.958;2023-04-15T09:45:49;5.77;;;2.37;;
8151;SDS011;4117;53.622;9.958;2023-04-15T09:48:17;5.67;;;2.47;;
8151;SDS011;4117;53.622;9.958;2023-04-15T09:50:46;8.50;;;2.33;;
8151;SDS011;4117;53.622;9.958;2023-04-15T09:53:17;4.03;;;2.20;;
8151;SDS011;4117;53.622;9.958;2023-04-15T09:55:46;3.93;;;2.47;;
8151;SDS011;4117;53.622;9.958;2023-04-15T09:58:19;7.03;;;2.43;;
8151;SDS011;4117;53.622;9.958;2023-04-15T10:00:46;4.87;;;2.70;;
8151;SDS011;4117;53.622;9.958;2023-04-15T10:03:17;5.23;;;2.70;;
8151;SDS011;4117;53.622;9.958;2023-04-15T10:05:47;5.97;;;2.60;;
8151;SDS011;4117;53.622;9.958;2023-04-15T10:08:15;4.33;;;2.10;;
8151;SDS011;4117;53.622;9.958;2023-04-15T10:10:44;6.73;;;2.93;;
8151;SDS011;4117;53.622;9.958;2023-04-15T10:13:12;3.87;;;2.30;;
8151;SDS011;4117;53.622;9.958;2023-04-15T10:15:41;4.00;;;2.60;;
8151;SDS011;4117;53.622;9.958;2023-04-15T10:18:13;5.43;;;3.07;;
8151;SDS011;4117;53.622;9.958;2023-04-15T10:20:43;5.83;;;3.23;;
8151;SDS011;4117;53.622;9.958;2023-04-15T10:23:11;5.70;;;2.57;;
8151;SDS011;4117;53.622;9.958;2023-04-15T10:25:38;6.97;;;2.77;;
8151;SDS011;4117;53.622;9.958;2023-04-15T10:28:05;7.80;;;3.20;;
8151;SDS011;4117;53.622;9.958;2023-04-15T10:30:34;7.17;;;3.20;;
8151;SDS011;4117;53.622;9.958;2023-04-15T10:33:02;7.17;;;3.80;;
8151;SDS011;4117;53.622;9.958;2023-04-15T10:35:32;6.80;;;3.43;;
8151;SDS011;4117;53.622;9.958;2023-04-15T10:37:59;4.77;;;2.93;;
8151;SDS011;4117;53.622;9.958;2023-04-15T10:40:26;8.13;;;3.37;;
8151;SDS011;4117;53.622;9.958;2023-04-15T10:42:55;3.50;;;2.47;;
8151;SDS011;4117;53.622;9.958;2023-04-15T10:45:24;6.70;;;3.30;;
8151;SDS011;4117;53.622;9.958;2023-04-15T10:47:53;5.90;;;2.97;;
8151;SDS011;4117;53.622;9.958;2023-04-15T10:50:22;5.27;;;2.93;;
8151;SDS011;4117;53.622;9.958;2023-04-15T10:52:53;3.50;;;2.63;;
8151;SDS011;4117;53.622;9.958;2023-04-15T10:55:22;8.23;;;3.00;;
8151;SDS011;4117;53.622;9.958;2023-04-15T10:57:51;5.47;;;2.90;;
8151;SDS011;4117;53.622;9.958;2023-04-15T11:00:20;7.47;;;3.37;;
8151;SDS011;4117;53.622;9.958;2023-04-15T11:02:51;6.20;;;3.00;;
8151;SDS011;4117;53.622;9.958;2023-04-15T11:05:20;4.00;;;2.83;;
8151;SDS011;4117;53.622;9.958;2023-04-15T11:07:50;8.53;;;4.00;;
8151;SDS011;4117;53.622;9.958;2023-04-15T11:13:20;6.60;;;3.07;;
8151;SDS011;4117;53.622;9.958;2023-04-15T11:15:54;5.60;;;2.33;;
8151;SDS011;4117;53.622;9.958;2023-04-15T11:18:26;3.20;;;2.07;;
8151;SDS011;4117;53.622;9.958;2023-04-15T11:20:56;3.73;;;2.60;;
8151;SDS011;4117;53.622;9.958;2023-04-15T11:23:33;5.13;;;2.60;;
8151;SDS011;4117;53.622;9.958;2023-04-15T11:26:03;5.63;;;2.40;;
8151;SDS011;4117;53.622;9.958;2023-04-15T11:28:33;4.13;;;2.23;;
8151;SDS011;4117;53.622;9.958;2023-04-15T11:31:05;3.00;;;1.87;;
8151;SDS011;4117;53.622;9.958;2023-04-15T11:33:34;5.00;;;2.20;;
8151;SDS011;4117;53.622;9.958;2023-04-15T11:36:02;3.47;;;1.97;;
8151;SDS011;4117;53.622;9.958;2023-04-15T11:38:29;3.67;;;2.03;;
8151;SDS011;4117;53.622;9.958;2023-04-15T11:40:58;2.83;;;1.97;;
8151;SDS011;4117;53.622;9.958;2023-04-15T11:43:25;2.57;;;2.03;;
8151;SDS011;4117;53.622;9.958;2023-04-15T11:45:52;3.23;;;1.90;;
8151;SDS011;4117;53.622;9.958;2023-04-15T11:48:21;3.20;;;2.00;;
8151;SDS011;4117;53.622;9.958;2023-04-15T11:50:52;3.47;;;2.33;;
8151;SDS011;4117;53.622;9.958;2023-04-15T11:53:20;2.97;;;1.83;;
8151;SDS011;4117;53.622;9.958;2023-04-15T11:55:48;3.97;;;1.90;;
8151;SDS011;4117;53.622;9.958;2023-04-15T11:58:19;3.70;;;1.70;;
8151;SDS011;4117;53.622;9.958;2023-04-15T12:00:48;4.07;;;1.80;;
8151;SDS011;4117;53.622;9.958;2023-04-15T12:03:20;3.30;;;2.00;;
8151;SDS011;4117;53.622;9.958;2023-04-15T12:06:01;4.27;;;2.07;;
8151;SDS011;4117;53.622;9.958;2023-04-15T12:11:18;3.27;;;1.87;;
8151;SDS011;4117;53.622;9.958;2023-04-15T12:13:47;2.47;;;1.60;;
8151;SDS011;4117;53.622;9.958;2023-04-15T12:16:16;2.97;;;2.10;;
8151;SDS011;4117;53.622;9.958;2023-04-15T12:18:44;3.20;;;2.00;;
8151;SDS011;4117;53.622;9.958;2023-04-15T12:21:12;6.57;;;2.20;;
8151;SDS011;4117;53.622;9.958;2023-04-15T12:23:44;2.10;;;1.50;;
8151;SDS011;4117;53.622;9.958;2023-04-15T12:26:14;2.93;;;1.80;;
8151;SDS011;4117;53.622;9.958;2023-04-15T12:28:42;2.67;;;1.93;;
8151;SDS011;4117;53.622;9.958;2023-04-15T12:31:10;2.50;;;1.63;;
8151;SDS011;4117;53.622;9.958;2023-04-15T12:33:39;3.07;;;2.13;;
8151;SDS011;4117;53.622;9.958;2023-04-15T12:36:06;2.80;;;2.10;;
8151;SDS011;4117;53.622;9.958;2023-04-15T12:38:33;3.03;;;2.07;;
8151;SDS011;4117;53.622;9.958;2023-04-15T12:41:00;2.60;;;1.97;;
8151;SDS011;4117;53.622;9.958;2023-04-15T12:43:27;2.77;;;2.00;;
8151;SDS011;4117;53.622;9.958;2023-04-15T12:45:54;2.20;;;1.80;;
8151;SDS011;4117;53.622;9.958;2023-04-15T12:48:22;2.57;;;2.00;;
8151;SDS011;4117;53.622;9.958;2023-04-15T12:50:49;2.63;;;1.73;;
8151;SDS011;4117;53.622;9.958;2023-04-15T12:53:17;6.33;;;2.63;;
8151;SDS011;4117;53.622;9.958;2023-04-15T12:55:44;3.37;;;2.27;;
8151;SDS011;4117;53.622;9.958;2023-04-15T12:58:11;3.10;;;1.90;;
8151;SDS011;4117;53.622;9.958;2023-04-15T13:00:38;2.53;;;1.73;;
8151;SDS011;4117;53.622;9.958;2023-04-15T13:03:05;4.60;;;2.40;;
8151;SDS011;4117;53.622;9.958;2023-04-15T13:05:33;4.87;;;2.00;;
8151;SDS011;4117;53.622;9.958;2023-04-15T13:08:01;2.83;;;1.80;;
8151;SDS011;4117;53.622;9.958;2023-04-15T13:10:28;3.17;;;2.33;;
8151;SDS011;4117;53.622;9.958;2023-04-15T13:12:55;3.70;;;2.43;;
8151;SDS011;4117;53.622;9.958;2023-04-15T13:15:23;3.73;;;2.20;;
8151;SDS011;4117;53.622;9.958;2023-04-15T13:17:50;2.03;;;1.60;;
8151;SDS011;4117;53.622;9.958;2023-04-15T13:20:17;3.13;;;2.13;;
8151;SDS011;4117;53.622;9.958;2023-04-15T13:22:46;3.40;;;2.17;;
8151;SDS011;4117;53.622;9.958;2023-04-15T13:25:13;3.67;;;2.07;;
8151;SDS011;4117;53.622;9.958;2023-04-15T13:27:40;2.37;;;1.70;;
8151;SDS011;4117;53.622;9.958;2023-04-15T13:30:08;2.87;;;2.20;;
8151;SDS011;4117;53.622;9.958;2023-04-15T13:32:35;2.70;;;1.73;;
8151;SDS011;4117;53.622;9.958;2023-04-15T13:35:02;4.00;;;1.90;;
8151;SDS011;4117;53.622;9.958;2023-04-15T13:37:30;2.93;;;1.97;;
8151;SDS011;4117;53.622;9.958;2023-04-15T13:39:58;2.30;;;2.10;;
8151;SDS011;4117;53.622;9.958;2023-04-15T13:42:26;3.60;;;2.27;;
8151;SDS011;4117;53.622;9.958;2023-04-15T13:44:53;2.97;;;2.23;;
8151;SDS011;4117;53.622;9.958;2023-04-15T13:47:22;3.77;;;1.80;;
8151;SDS011;4117;53.622;9.958;2023-04-15T13:49:49;3.13;;;2.13;;
8151;SDS011;4117;53.622;9.958;2023-04-15T13:52:18;3.03;;;1.90;;
8151;SDS011;4117;53.622;9.958;2023-04-15T13:54:45;3.93;;;1.80;;
8151;SDS011;4117;53.622;9.958;2023-04-15T13:57:14;3.50;;;1.93;;
8151;SDS011;4117;53.622;9.958;2023-04-15T13:59:41;4.30;;;1.83;;
8151;SDS011;4117;53.622;9.958;2023-04-15T14:02:08;1.90;;;1.60;;
8151;SDS011;4117;53.622;9.958;2023-04-15T14:04:36;1.80;;;1.53;;
8151;SDS011;4117;53.622;9.958;2023-04-15T14:07:03;3.83;;;2.00;;
8151;SDS011;4117;53.622;9.958;2023-04-15T14:09:30;3.00;;;1.83;;
8151;SDS011;4117;53.622;9.958;2023-04-15T14:11:57;2.27;;;1.87;;
8151;SDS011;4117;53.622;9.958;2023-04-15T14:14:26;2.67;;;1.73;;
8151;SDS011;4117;53.622;9.958;2023-04-15T14:16:54;3.37;;;1.83;;
8151;SDS011;4117;53.622;9.958;2023-04-15T14:19:21;2.00;;;1.60;;
8151;SDS011;4117;53.622;9.958;2023-04-15T14:21:49;2.67;;;1.70;;
8151;SDS011;4117;53.622;9.958;2023-04-15T14:24:16;6.00;;;1.83;;
8151;SDS011;4117;53.622;9.958;2023-04-15T14:26:43;3.73;;;2.13;;
8151;SDS011;4117;53.622;9.958;2023-04-15T14:29:10;2.07;;;1.73;;
8151;SDS011;4117;53.622;9.958;2023-04-15T14:31:38;3.27;;;1.67;;
8151;SDS011;4117;53.622;9.958;2023-04-15T14:34:05;1.83;;;1.63;;
8151;SDS011;4117;53.622;9.958;2023-04-15T14:36:32;4.20;;;2.50;;
8151;SDS011;4117;53.622;9.958;2023-04-15T14:38:59;1.97;;;1.53;;
8151;SDS011;4117;53.622;9.958;2023-04-15T14:41:26;2.97;;;1.90;;
8151;SDS011;4117;53.622;9.958;2023-04-15T14:43:53;2.90;;;1.90;;
8151;SDS011;4117;53.622;9.958;2023-04-15T14:46:20;3.97;;;2.37;;
8151;SDS011;4117;53.622;9.958;2023-04-15T14:48:49;5.60;;;2.00;;
8151;SDS011;4117;53.622;9.958;2023-04-15T14:51:16;4.43;;;2.10;;
8151;SDS011;4117;53.622;9.958;2023-04-15T14:53:43;3.90;;;1.77;;
8151;SDS011;4117;53.622;9.958;2023-04-15T14:56:11;1.87;;;1.67;;
8151;SDS011;4117;53.622;9.958;2023-04-15T14:58:38;4.07;;;1.90;;
8151;SDS011;4117;53.622;9.958;2023-04-15T15:01:05;3.17;;;1.60;;
8151;SDS011;4117;53.622;9.958;2023-04-15T15:03:34;2.30;;;1.70;;
8151;SDS011;4117;53.622;9.958;2023-04-15T15:06:03;7.23;;;2.30;;
8151;SDS011;4117;53.622;9.958;2023-04-15T15:08:31;2.43;;;1.83;;
8151;SDS011;4117;53.622;9.958;2023-04-15T15:10:58;2.90;;;2.00;;
8151;SDS011;4117;53.622;9.958;2023-04-15T15:13:25;2.93;;;2.03;;
8151;SDS011;4117;53.622;9.958;2023-04-15T15:15:52;3.83;;;2.37;;
8151;SDS011;4117;53.622;9.958;2023-04-15T15:18:19;5.33;;;2.37;;
8151;SDS011;4117;53.622;9.958;2023-04-15T15:20:46;2.57;;;1.70;;
8151;SDS011;4117;53.622;9.958;2023-04-15T15:23:15;5.57;;;2.30;;